Time;durP1;ratioP1;P1;durP2;ratioP2;P2;SDS_P1;SDS_P2;PMS_P1;PMS_P2;Temp;Humidity;BMP_temperature;BMP_pressure;BME280_temperature;BME280_humidity;BME280_pressure;Samples;Min_cycle;Max_cycle;Signal;HPM_P1;HPM_P2
2021/12/16 00:08:08;;;;;;;61.30;30.80;;;;;;;;;;5056678;28;20024;-75
2021/12/16 00:10:48;;;;;;;77.47;33.60;;;;;;;;;;5055629;28;20028;-75
2021/12/16 00:34:51;;;;;;;57.80;30.65;;;;;;;;;;5060339;28;20099;-75
2021/12/16 00:37:18;;;;;;;65.43;33.80;;;;;;;;;;5059088;28;20075;-75
2021/12/16 00:39:44;;;;;;;67.18;32.92;;;;;;;;;;5060302;28;20027;-75
2021/12/16 00:42:28;;;;;;;60.03;31.38;;;;;;;;;;5043085;28;20024;-75
2021/12/16 00:47:33;;;;;;;67.50;32.03;;;;;;;;;;5059429;28;20024;-75
2021/12/16 00:50:18;;;;;;;69.82;33.85;;;;;;;;;;5058831;28;20108;-75
2021/12/16 00:55:51;;;;;;;67.97;33.05;;;;;;;;;;5059955;28;20434;-75
2021/12/16 00:58:17;;;;;;;60.53;29.42;;;;;;;;;;5058116;28;20128;-75
2021/12/16 01:00:51;;;;;;;73.38;34.22;;;;;;;;;;5058059;28;20021;-74
2021/12/16 01:03:31;;;;;;;77.40;34.45;;;;;;;;;;5041815;28;20411;-75
2021/12/16 01:47:01;;;;;;;73.80;32.20;;;;;;;;;;5068610;22;20049;-74
2021/12/16 01:59:56;;;;;;;73.03;33.88;;;;;;;;;;5092684;22;20130;-75
2021/12/16 02:35:31;;;;;;;70.90;33.65;;;;;;;;;;5056362;28;20044;-76
2021/12/16 02:38:04;;;;;;;;;;;;;;;;;;5039961;28;20036;-76
2021/12/16 02:40:33;;;;;;;;;;;;;;;;;;5039480;28;19921;-75
2021/12/16 02:43:10;;;;;;;76.80;33.35;;;;;;;;;;5038482;28;19995;-76
2021/12/16 02:48:34;;;;;;;84.72;37.88;;;;;;;;;;5053130;28;20119;-77
2021/12/16 02:51:07;;;;;;;89.60;41.08;;;;;;;;;;5036714;28;20021;-77
2021/12/16 02:53:47;;;;;;;67.45;35.42;;;;;;;;;;5036910;28;20013;-75
2021/12/16 02:56:21;;;;;;;47.63;22.40;;;;;;;;;;5051623;28;20059;-76
2021/12/16 02:58:54;;;;;;;77.75;37.30;;;;;;;;;;5018575;28;20074;-76
2021/12/16 03:01:34;;;;;;;80.88;38.55;;;;;;;;;;5036118;28;20023;-77
2021/12/16 03:04:09;;;;;;;103.18;41.97;;;;;;;;;;5053412;28;20339;-77
2021/12/16 03:06:42;;;;;;;82.70;36.03;;;;;;;;;;5035880;28;20027;-77
2021/12/16 03:09:18;;;;;;;74.95;36.35;;;;;;;;;;5034535;28;20021;-77
2021/12/16 03:15:01;;;;;;;70.78;32.35;;;;;;;;;;5050403;28;20078;-77
2021/12/16 03:20:48;;;;;;;81.75;35.30;;;;;;;;;;5034738;28;20132;-77
2021/12/16 03:32:48;;;;;;;71.68;35.75;;;;;;;;;;5052778;28;20127;-77
2021/12/16 03:36:06;;;;;;;70.78;34.15;;;;;;;;;;5042162;28;20341;-77
2021/12/16 03:38:49;;;;;;;83.32;37.58;;;;;;;;;;5050790;28;20017;-78
2021/12/16 03:41:19;;;;;;;87.22;35.35;;;;;;;;;;5052246;28;20028;-77
2021/12/16 03:44:38;;;;;;;71.40;34.53;;;;;;;;;;5065769;22;20422;-76
2021/12/16 03:47:42;;;;;;;86.78;36.90;;;;;;;;;;5035152;28;20017;-76
2021/12/16 03:51:08;;;;;;;91.82;38.33;;;;;;;;;;5067078;22;20044;-77
2021/12/16 03:54:28;;;;;;;83.95;36.75;;;;;;;;;;5053414;28;20497;-77
2021/12/16 03:57:38;;;;;;;81.30;37.47;;;;;;;;;;5049948;28;20095;-77
2021/12/16 04:00:59;;;;;;;87.28;37.05;;;;;;;;;;5037648;28;20323;-77
2021/12/16 04:03:44;;;;;;;87.10;38.63;;;;;;;;;;5056089;28;20052;-76
2021/12/16 04:06:55;;;;;;;89.68;36.22;;;;;;;;;;5055100;22;20214;-78
2021/12/16 04:10:14;;;;;;;99.20;41.60;;;;;;;;;;5033822;28;20124;-77
2021/12/16 04:13:05;;;;;;;88.60;37.72;;;;;;;;;;5036353;28;20041;-76
2021/12/16 04:16:08;;;;;;;98.25;39.10;;;;;;;;;;5035544;28;20013;-77
2021/12/16 04:19:17;;;;;;;101.75;40.83;;;;;;;;;;5028239;28;20125;-77
2021/12/16 04:22:52;;;;;;;124.88;47.38;;;;;;;;;;5015684;28;20029;-77
2021/12/16 04:25:31;;;;;;;152.10;51.05;;;;;;;;;;5026468;28;20025;-76
2021/12/16 04:28:01;;;;;;;166.07;56.67;;;;;;;;;;5052083;23;20051;-76
2021/12/16 04:30:30;;;;;;;159.55;62.17;;;;;;;;;;5052719;28;20399;-76
2021/12/16 04:32:57;;;;;;;122.55;53.75;;;;;;;;;;5055328;28;20409;-78
2021/12/16 04:35:24;;;;;;;114.38;44.38;;;;;;;;;;5056035;28;20101;-76
2021/12/16 04:37:51;;;;;;;134.68;51.53;;;;;;;;;;5072524;22;20045;-77
2021/12/16 04:40:20;;;;;;;129.77;51.40;;;;;;;;;;5054670;28;20021;-76
2021/12/16 04:42:52;;;;;;;132.02;53.65;;;;;;;;;;5038666;28;20029;-76
2021/12/16 04:45:21;;;;;;;117.25;42.70;;;;;;;;;;5038597;28;20141;-77
2021/12/16 04:47:49;;;;;;;114.13;45.22;;;;;;;;;;5039363;28;20341;-77
2021/12/16 04:50:17;;;;;;;137.05;53.83;;;;;;;;;;5055354;28;20017;-77
2021/12/16 04:52:43;;;;;;;136.82;50.67;;;;;;;;;;5037802;28;20036;-76
2021/12/16 04:55:16;;;;;;;134.85;51.88;;;;;;;;;;5037204;28;20017;-76
2021/12/16 04:57:53;;;;;;;116.82;51.15;;;;;;;;;;5037700;28;20577;-76
2021/12/16 05:00:27;;;;;;;113.25;50.25;;;;;;;;;;5037842;28;20021;-76
2021/12/16 05:03:13;;;;;;;140.80;49.53;;;;;;;;;;5059018;22;20102;-76
2021/12/16 05:05:40;;;;;;;125.30;56.03;;;;;;;;;;5038590;28;20458;-76
2021/12/16 05:08:06;;;;;;;138.68;55.70;;;;;;;;;;5054223;28;20058;-76
2021/12/16 05:10:34;;;;;;;145.15;53.42;;;;;;;;;;5037661;28;20021;-77
2021/12/16 05:13:05;;;;;;;129.45;48.92;;;;;;;;;;5053464;28;20021;-77
2021/12/16 05:15:42;;;;;;;132.02;53.00;;;;;;;;;;5040076;28;20311;-76
2021/12/16 05:18:33;;;;;;;118.47;47.80;;;;;;;;;;5041877;28;20021;-76
2021/12/16 05:21:06;;;;;;;105.15;47.22;;;;;;;;;;5055208;28;20032;-77
2021/12/16 05:26:22;;;;;;;102.03;48.47;;;;;;;;;;5055543;28;20025;-76
2021/12/16 05:28:54;;;;;;;109.53;46.43;;;;;;;;;;5054984;28;20040;-76
2021/12/16 05:31:25;;;;;;;110.68;49.38;;;;;;;;;;5055272;28;20045;-77
2021/12/16 05:34:01;;;;;;;103.78;48.55;;;;;;;;;;5038161;28;20045;-76
2021/12/16 05:36:30;;;;;;;121.05;53.92;;;;;;;;;;5054364;28;20022;-76
2021/12/16 05:39:00;;;;;;;117.75;52.95;;;;;;;;;;5037580;28;20446;-76
2021/12/16 05:41:29;;;;;;;107.40;49.90;;;;;;;;;;5036340;28;20027;-76
2021/12/16 05:43:58;;;;;;;125.35;51.55;;;;;;;;;;5036139;28;20021;-76
2021/12/16 05:46:31;;;;;;;109.07;52.00;;;;;;;;;;5034111;28;20021;-76
2021/12/16 05:49:08;;;;;;;126.00;52.80;;;;;;;;;;5037908;28;20292;-76
2021/12/16 05:51:39;;;;;;;122.63;52.92;;;;;;;;;;5055159;28;20043;-76
2021/12/16 05:54:07;;;;;;;119.35;50.55;;;;;;;;;;5036302;28;20025;-75
2021/12/16 05:56:36;;;;;;;126.20;50.72;;;;;;;;;;5052711;28;20043;-75
2021/12/16 05:59:05;;;;;;;112.63;48.45;;;;;;;;;;5036547;28;20086;-76
2021/12/16 06:01:34;;;;;;;130.57;56.83;;;;;;;;;;5052396;28;20070;-76
2021/12/16 06:04:01;;;;;;;123.25;53.75;;;;;;;;;;5051527;28;20382;-76
2021/12/16 06:06:28;;;;;;;115.93;54.72;;;;;;;;;;5034851;28;20029;-76
2021/12/16 06:08:55;;;;;;;133.13;59.38;;;;;;;;;;5052090;28;20431;-76
2021/12/16 06:11:26;;;;;;;126.18;57.30;;;;;;;;;;5034858;28;20032;-76
2021/12/16 06:14:13;;;;;;;136.65;57.33;;;;;;;;;;5035116;28;20025;-76
2021/12/16 06:27:41;;;;;;;151.98;62.88;;;;;;;;;;5054166;28;20519;-76
2021/12/16 06:30:11;;;;;;;131.57;62.88;;;;;;;;;;5037304;28;20327;-77
2021/12/16 06:32:37;;;;;;;138.93;59.30;;;;;;;;;;5054149;28;20036;-77
2021/12/16 06:35:04;;;;;;;164.95;66.38;;;;;;;;;;5053919;28;20021;-77
2021/12/16 06:37:32;;;;;;;135.57;60.55;;;;;;;;;;5053473;28;20021;-77
2021/12/16 06:40:03;;;;;;;133.82;62.22;;;;;;;;;;5037265;28;20021;-77
2021/12/16 06:42:31;;;;;;;132.93;61.80;;;;;;;;;;5036931;28;20045;-76
2021/12/16 06:45:12;;;;;;;132.25;62.97;;;;;;;;;;5054169;28;20311;-77
2021/12/16 06:47:49;;;;;;;126.47;47.53;;;;;;;;;;5037574;28;20345;-77
2021/12/16 06:50:37;;;;;;;111.00;49.95;;;;;;;;;;5052183;28;20017;-77
2021/12/16 06:53:06;;;;;;;112.57;51.83;;;;;;;;;;5036641;28;20043;-76
2021/12/16 06:55:48;;;;;;;109.07;49.55;;;;;;;;;;5053750;28;20017;-76
2021/12/16 06:58:24;;;;;;;118.40;53.15;;;;;;;;;;5037135;28;20434;-75
2021/12/16 07:01:04;;;;;;;119.75;54.70;;;;;;;;;;5053541;28;20275;-77
2021/12/16 07:03:44;;;;;;;123.57;54.97;;;;;;;;;;5053261;28;20055;-76
2021/12/16 07:06:13;;;;;;;114.22;54.55;;;;;;;;;;5053781;28;20334;-76
2021/12/16 07:08:53;;;;;;;119.60;53.83;;;;;;;;;;5052387;28;20032;-76
2021/12/16 07:11:26;;;;;;;131.38;54.40;;;;;;;;;;5053065;28;20032;-76
2021/12/16 07:14:12;;;;;;;99.85;47.17;;;;;;;;;;5038558;28;20029;-76
2021/12/16 07:17:00;;;;;;;103.85;49.80;;;;;;;;;;5037249;28;20033;-76
2021/12/16 07:19:31;;;;;;;113.68;50.50;;;;;;;;;;5052003;28;20023;-76
2021/12/16 07:22:00;;;;;;;96.38;48.35;;;;;;;;;;5051710;28;20025;-76
2021/12/16 07:24:28;;;;;;;97.45;47.88;;;;;;;;;;5052276;28;20025;-74
2021/12/16 07:26:55;;;;;;;101.22;47.42;;;;;;;;;;5054590;28;20355;-76
2021/12/16 07:29:23;;;;;;;110.20;53.60;;;;;;;;;;5052717;28;20506;-76
2021/12/16 07:31:51;;;;;;;96.05;47.00;;;;;;;;;;5035003;28;20029;-76
2021/12/16 07:34:27;;;;;;;87.55;41.03;;;;;;;;;;5052114;28;20060;-76
2021/12/16 07:36:54;;;;;;;97.63;42.58;;;;;;;;;;5034889;28;20017;-76
2021/12/16 07:39:29;;;;;;;103.95;46.25;;;;;;;;;;5033277;28;20427;-77
2021/12/16 07:41:59;;;;;;;104.45;44.65;;;;;;;;;;5051267;28;20137;-76
2021/12/16 07:44:26;;;;;;;114.13;53.30;;;;;;;;;;5052210;28;20025;-76
2021/12/16 07:47:00;;;;;;;98.35;42.47;;;;;;;;;;5035017;28;20037;-76
2021/12/16 07:49:29;;;;;;;100.47;44.95;;;;;;;;;;5034617;28;20021;-76
2021/12/16 07:52:02;;;;;;;114.95;50.70;;;;;;;;;;5051410;28;20024;-76
2021/12/16 07:54:30;;;;;;;109.68;46.28;;;;;;;;;;5050749;28;20025;-76
2021/12/16 07:56:58;;;;;;;105.32;50.92;;;;;;;;;;5036366;28;20059;-76
2021/12/16 07:59:26;;;;;;;122.78;52.13;;;;;;;;;;5036221;28;20028;-76
2021/12/16 08:02:15;;;;;;;123.65;56.72;;;;;;;;;;5036159;28;20029;-75
2021/12/16 08:05:16;;;;;;;134.73;56.20;;;;;;;;;;5050002;28;20048;-75
2021/12/16 08:07:54;;;;;;;128.87;55.83;;;;;;;;;;5054806;28;20013;-76
2021/12/16 08:10:22;;;;;;;113.25;49.35;;;;;;;;;;5053342;28;20253;-76
2021/12/16 08:12:49;;;;;;;110.63;46.35;;;;;;;;;;5037274;28;20033;-77
2021/12/16 08:15:16;;;;;;;132.00;55.17;;;;;;;;;;5053262;28;20017;-75
2021/12/16 08:17:42;;;;;;;130.25;53.50;;;;;;;;;;5037376;28;20028;-75
2021/12/16 08:20:10;;;;;;;111.60;48.72;;;;;;;;;;5053807;28;20166;-75
2021/12/16 08:22:36;;;;;;;130.05;56.90;;;;;;;;;;5036009;28;20025;-76
2021/12/16 08:25:03;;;;;;;142.10;57.05;;;;;;;;;;5044309;23;20541;-76
2021/12/16 08:27:30;;;;;;;127.65;55.75;;;;;;;;;;5055084;28;20032;-75
2021/12/16 08:29:56;;;;;;;148.23;60.55;;;;;;;;;;5037733;28;20027;-74
2021/12/16 08:32:23;;;;;;;140.85;55.25;;;;;;;;;;5037043;28;20037;-76
2021/12/16 08:34:49;;;;;;;146.00;58.38;;;;;;;;;;5055009;28;20415;-76
2021/12/16 08:37:16;;;;;;;136.40;59.53;;;;;;;;;;5057645;28;20021;-75
2021/12/16 08:39:43;;;;;;;143.73;63.38;;;;;;;;;;5057503;28;20078;-76
2021/12/16 08:42:10;;;;;;;188.07;68.32;;;;;;;;;;5040810;28;20082;-76
2021/12/16 08:44:36;;;;;;;141.20;63.15;;;;;;;;;;5057205;28;20048;-75
2021/12/16 08:47:07;;;;;;;154.60;65.00;;;;;;;;;;5057261;28;20017;-74
2021/12/16 08:49:32;;;;;;;;;;;;;;;;;;5058911;28;20013;-75
2021/12/16 08:52:01;;;;;;;132.25;60.35;;;;;;;;;;5040904;28;19935;-74
2021/12/16 08:54:29;;;;;;;140.60;66.00;;;;;;;;;;5057032;28;20111;-75
2021/12/16 08:56:55;;;;;;;152.65;62.75;;;;;;;;;;5056989;28;20025;-75
2021/12/16 08:59:21;;;;;;;151.27;67.65;;;;;;;;;;5058514;28;20320;-75
2021/12/16 09:01:49;;;;;;;140.32;66.97;;;;;;;;;;5058708;28;20090;-76
2021/12/16 09:04:19;;;;;;;131.82;65.53;;;;;;;;;;5057893;28;20024;-75
2021/12/16 09:06:46;;;;;;;139.05;63.38;;;;;;;;;;5057370;28;20024;-75
2021/12/16 09:09:12;;;;;;;138.68;67.15;;;;;;;;;;5057809;28;20434;-76
2021/12/16 09:11:54;;;;;;;152.75;66.25;;;;;;;;;;5057620;28;20097;-75
2021/12/16 09:14:20;;;;;;;158.95;73.15;;;;;;;;;;5057130;28;20347;-76
2021/12/16 09:16:46;;;;;;;149.45;65.95;;;;;;;;;;5057666;28;20021;-75
2021/12/16 09:19:13;;;;;;;153.35;72.25;;;;;;;;;;5057331;28;20441;-75
2021/12/16 09:21:39;;;;;;;161.52;73.43;;;;;;;;;;5058353;28;20361;-75
2021/12/16 09:24:07;;;;;;;151.32;75.88;;;;;;;;;;5057770;28;20111;-76
2021/12/16 09:26:33;;;;;;;151.05;67.50;;;;;;;;;;5057144;28;20146;-75
2021/12/16 09:28:59;;;;;;;157.90;73.57;;;;;;;;;;5056926;28;20031;-75
2021/12/16 09:31:27;;;;;;;171.07;77.60;;;;;;;;;;5058792;28;20029;-76
2021/12/16 09:33:54;;;;;;;168.18;76.13;;;;;;;;;;5057068;28;20059;-76
2021/12/16 09:36:23;;;;;;;132.55;56.83;;;;;;;;;;5057364;28;20071;-77
2021/12/16 09:38:50;;;;;;;167.30;66.85;;;;;;;;;;5057085;28;20028;-76
2021/12/16 09:41:17;;;;;;;150.45;66.32;;;;;;;;;;5040733;28;20021;-76
2021/12/16 09:43:45;;;;;;;166.00;75.75;;;;;;;;;;5040875;28;20021;-75
2021/12/16 09:46:13;;;;;;;181.43;80.18;;;;;;;;;;5040616;28;20445;-77
2021/12/16 09:48:39;;;;;;;189.30;81.30;;;;;;;;;;5056811;28;20032;-76
2021/12/16 09:51:07;;;;;;;168.02;78.55;;;;;;;;;;5056758;28;20021;-76
2021/12/16 09:53:34;;;;;;;175.43;75.28;;;;;;;;;;5056586;28;20047;-76
2021/12/16 09:56:01;;;;;;;182.90;78.22;;;;;;;;;;5057501;28;20017;-75
2021/12/16 09:58:28;;;;;;;198.48;74.55;;;;;;;;;;5058073;28;20337;-77
2021/12/16 10:00:55;;;;;;;175.90;79.28;;;;;;;;;;5057293;28;20031;-77
2021/12/16 10:03:22;;;;;;;181.90;77.63;;;;;;;;;;5058768;28;20025;-76
2021/12/16 10:05:51;;;;;;;179.65;82.00;;;;;;;;;;5040474;28;20025;-76
2021/12/16 10:08:17;;;;;;;186.23;77.03;;;;;;;;;;5040470;28;20024;-76
2021/12/16 10:10:43;;;;;;;185.23;81.88;;;;;;;;;;5056482;28;20120;-76
2021/12/16 10:13:11;;;;;;;195.60;85.68;;;;;;;;;;5064950;22;20044;-75
2021/12/16 10:18:09;;;;;;;200.27;88.50;;;;;;;;;;5058043;28;20020;-76
2021/12/16 10:20:40;;;;;;;198.45;84.82;;;;;;;;;;5056665;28;20020;-76
2021/12/16 10:23:09;;;;;;;208.07;86.63;;;;;;;;;;5038801;28;20017;-76
2021/12/16 10:25:40;;;;;;;200.45;85.80;;;;;;;;;;5040055;28;20021;-76
2021/12/16 10:28:16;;;;;;;217.13;89.40;;;;;;;;;;5039721;28;20044;-76
2021/12/16 10:31:02;;;;;;;238.68;92.85;;;;;;;;;;5039203;28;20410;-76
2021/12/16 10:33:29;;;;;;;;;;;;;;;;;;5055938;28;20079;-75
2021/12/16 10:36:14;;;;;;;212.75;89.18;;;;;;;;;;5037199;28;19904;-76
2021/12/16 10:38:52;;;;;;;218.05;89.45;;;;;;;;;;5039268;28;20052;-76
2021/12/16 10:41:24;;;;;;;217.13;89.25;;;;;;;;;;5056240;28;20024;-76
2021/12/16 10:43:54;;;;;;;216.43;92.65;;;;;;;;;;5040116;28;20343;-75
2021/12/16 10:46:28;;;;;;;222.35;94.55;;;;;;;;;;5039515;28;20025;-76
2021/12/16 10:49:03;;;;;;;205.20;87.03;;;;;;;;;;5040726;28;20021;-76
2021/12/16 10:51:39;;;;;;;209.45;89.43;;;;;;;;;;5055414;28;20033;-76
2021/12/16 10:54:15;;;;;;;191.75;84.90;;;;;;;;;;5039279;28;20428;-76
2021/12/16 10:56:56;;;;;;;215.35;91.57;;;;;;;;;;5036628;28;20032;-76
2021/12/16 10:59:26;;;;;;;230.65;94.55;;;;;;;;;;5037867;28;20041;-76
2021/12/16 11:02:05;;;;;;;189.02;84.88;;;;;;;;;;5039590;28;20373;-76
2021/12/16 11:04:35;;;;;;;214.93;88.38;;;;;;;;;;5039216;28;20021;-76
2021/12/16 11:07:07;;;;;;;206.60;89.03;;;;;;;;;;5053074;28;20028;-76
2021/12/16 11:09:54;;;;;;;196.30;88.53;;;;;;;;;;5037915;28;20102;-76
2021/12/16 11:12:50;;;;;;;200.85;84.20;;;;;;;;;;5049158;28;20044;-75
2021/12/16 11:15:23;;;;;;;210.47;86.33;;;;;;;;;;5039434;28;20144;-75
2021/12/16 11:17:59;;;;;;;188.23;83.40;;;;;;;;;;5039384;28;20017;-75
2021/12/16 11:20:28;;;;;;;223.50;89.70;;;;;;;;;;5055831;28;20040;-75
2021/12/16 11:23:06;;;;;;;207.95;85.60;;;;;;;;;;5056577;28;20025;-76
2021/12/16 11:25:37;;;;;;;216.57;91.07;;;;;;;;;;5056620;28;20052;-76
2021/12/16 11:28:10;;;;;;;205.82;91.55;;;;;;;;;;5057137;28;20100;-76
2021/12/16 11:30:43;;;;;;;220.52;96.20;;;;;;;;;;5056630;28;20059;-77
2021/12/16 11:33:15;;;;;;;229.48;104.47;;;;;;;;;;5055820;28;20347;-76
2021/12/16 11:35:43;;;;;;;227.73;99.32;;;;;;;;;;5056398;28;20017;-76
2021/12/16 11:38:31;;;;;;;234.32;99.15;;;;;;;;;;5055589;28;20021;-76
2021/12/16 11:41:00;;;;;;;235.90;100.78;;;;;;;;;;5039495;28;20117;-76
2021/12/16 11:43:30;;;;;;;218.77;98.15;;;;;;;;;;5056103;28;20052;-76
2021/12/16 11:45:56;;;;;;;238.57;104.60;;;;;;;;;;5055278;28;20051;-76
2021/12/16 11:48:35;;;;;;;230.88;105.30;;;;;;;;;;5039516;28;20094;-76
2021/12/16 11:51:03;;;;;;;223.50;106.32;;;;;;;;;;5039213;28;20024;-76
2021/12/16 11:53:42;;;;;;;227.88;104.93;;;;;;;;;;5039307;28;20033;-76
2021/12/16 11:56:10;;;;;;;215.77;102.93;;;;;;;;;;5039413;28;20017;-76
2021/12/16 11:58:36;;;;;;;240.18;108.80;;;;;;;;;;5039208;28;20021;-76
2021/12/16 12:01:10;;;;;;;260.73;113.18;;;;;;;;;;5038925;28;20127;-76
2021/12/16 12:03:36;;;;;;;255.68;113.28;;;;;;;;;;5063925;22;20497;-76
2021/12/16 12:06:02;;;;;;;236.80;111.78;;;;;;;;;;5055647;28;20021;-76
2021/12/16 12:08:31;;;;;;;262.33;110.32;;;;;;;;;;5056000;28;20029;-76
2021/12/16 12:11:06;;;;;;;262.38;114.68;;;;;;;;;;5042849;28;20411;-76
2021/12/16 12:13:40;;;;;;;271.48;113.85;;;;;;;;;;5042833;28;20123;-76
2021/12/16 12:16:11;;;;;;;249.05;109.72;;;;;;;;;;5042679;28;20158;-76
2021/12/16 12:18:43;;;;;;;248.35;106.95;;;;;;;;;;5042948;28;20023;-76
2021/12/16 12:21:29;;;;;;;245.02;114.55;;;;;;;;;;5058856;28;20017;-76
2021/12/16 12:24:01;;;;;;;240.35;114.40;;;;;;;;;;5058984;28;20462;-76
2021/12/16 12:26:29;;;;;;;274.80;119.93;;;;;;;;;;5042497;28;20067;-76
2021/12/16 12:28:58;;;;;;;285.88;118.82;;;;;;;;;;5058740;28;20111;-76
2021/12/16 12:31:25;;;;;;;266.88;121.30;;;;;;;;;;5058853;28;20032;-76
2021/12/16 12:33:52;;;;;;;305.50;127.43;;;;;;;;;;5042455;28;20136;-77
2021/12/16 12:36:20;;;;;;;268.38;120.45;;;;;;;;;;5059011;28;20104;-77
2021/12/16 12:38:47;;;;;;;264.83;120.50;;;;;;;;;;5059729;28;20021;-77
2021/12/16 12:41:14;;;;;;;271.25;121.30;;;;;;;;;;5042150;28;20055;-77
2021/12/16 12:43:40;;;;;;;264.73;120.72;;;;;;;;;;5042270;28;20032;-76
2021/12/16 12:46:10;;;;;;;255.85;118.53;;;;;;;;;;5058185;28;20017;-76
2021/12/16 12:48:42;;;;;;;263.42;122.18;;;;;;;;;;5058314;28;20017;-76
2021/12/16 12:51:09;;;;;;;286.23;119.97;;;;;;;;;;5042180;28;20027;-77
2021/12/16 12:53:35;;;;;;;273.45;124.95;;;;;;;;;;5041714;28;20036;-76
2021/12/16 12:56:13;;;;;;;285.63;130.70;;;;;;;;;;5041867;28;20327;-76
2021/12/16 12:59:11;;;;;;;265.88;135.48;;;;;;;;;;5041732;28;20017;-76
2021/12/16 13:01:47;;;;;;;290.90;133.38;;;;;;;;;;5030004;28;20033;-76
2021/12/16 13:04:16;;;;;;;266.95;126.82;;;;;;;;;;5042054;28;20354;-76
2021/12/16 13:06:49;;;;;;;278.70;134.15;;;;;;;;;;5041743;28;20028;-76
2021/12/16 13:09:28;;;;;;;315.90;147.40;;;;;;;;;;5057575;28;20046;-76
2021/12/16 13:11:56;;;;;;;394.52;189.65;;;;;;;;;;5057371;28;20489;-77
2021/12/16 13:14:40;;;;;;;425.38;202.70;;;;;;;;;;5041329;28;20308;-77
2021/12/16 13:28:48;;;;;;;377.80;175.32;;;;;;;;;;5058061;28;20025;-76
2021/12/16 13:31:33;;;;;;;399.45;190.73;;;;;;;;;;5057801;28;20358;-76
2021/12/16 13:34:00;;;;;;;393.05;205.88;;;;;;;;;;5051198;28;20442;-77
2021/12/16 13:36:43;;;;;;;382.73;173.52;;;;;;;;;;5041154;28;20028;-76
2021/12/16 13:39:21;;;;;;;344.38;164.48;;;;;;;;;;5040606;28;20017;-76
2021/12/16 13:41:57;;;;;;;328.80;154.40;;;;;;;;;;5057150;28;20016;-76
2021/12/16 13:44:37;;;;;;;323.58;160.95;;;;;;;;;;5041173;28;20055;-76
2021/12/16 14:01:14;;;;;;;378.80;174.70;;;;;;;;;;5057327;28;20430;-76
2021/12/16 14:04:24;;;;;;;383.80;171.00;;;;;;;;;;5058417;28;20470;-76
2021/12/16 14:06:51;;;;;;;365.23;166.68;;;;;;;;;;5055113;28;20025;-76
2021/12/16 14:09:20;;;;;;;347.30;161.88;;;;;;;;;;5040527;28;20104;-76
2021/12/16 14:17:27;;;;;;;364.48;174.70;;;;;;;;;;5056794;28;20017;-76
2021/12/16 14:26:07;;;;;;;382.02;176.52;;;;;;;;;;5043229;28;20043;-76
2021/12/16 14:41:40;;;;;;;256.77;123.43;;;;;;;;;;5056622;28;20387;-76
2021/12/16 14:45:11;;;;;;;206.07;87.88;;;;;;;;;;5039992;28;20032;-77
2021/12/16 14:47:14;;;;;;;203.30;90.78;;;;;;;;;;5056263;28;20407;-77
2021/12/16 14:49:45;;;;;;;195.52;85.30;;;;;;;;;;5039823;28;20027;-77
2021/12/16 14:52:11;;;;;;;;;;;;;;;;;;5056769;28;20029;-76
2021/12/16 14:54:45;;;;;;;185.27;79.18;;;;;;;;;;5056255;28;19904;-76
2021/12/16 14:57:12;;;;;;;181.73;85.40;;;;;;;;;;5039955;28;20024;-76
2021/12/16 14:59:39;;;;;;;182.60;84.22;;;;;;;;;;5055517;28;20124;-76
2021/12/16 15:02:06;;;;;;;168.10;79.43;;;;;;;;;;5039592;28;20064;-76
2021/12/16 15:04:33;;;;;;;189.05;81.45;;;;;;;;;;5039504;28;20017;-76
2021/12/16 15:07:07;;;;;;;201.82;81.22;;;;;;;;;;5039633;28;20021;-77
2021/12/16 15:09:37;;;;;;;193.60;80.05;;;;;;;;;;5039702;28;20060;-76
2021/12/16 15:12:13;;;;;;;207.43;84.35;;;;;;;;;;5055357;28;20039;-76
2021/12/16 15:33:02;;;;;;;185.43;77.88;;;;;;;;;;5066593;22;20023;-75
2021/12/16 15:45:15;;;;;;;169.20;77.03;;;;;;;;;;5035645;28;20029;-76
2021/12/16 15:47:43;;;;;;;170.85;83.75;;;;;;;;;;5035700;28;20018;-76
2021/12/16 15:50:12;;;;;;;169.73;80.88;;;;;;;;;;5052077;28;20108;-76
2021/12/16 15:52:40;;;;;;;174.98;85.22;;;;;;;;;;5035459;28;20048;-76
2021/12/16 15:55:06;;;;;;;168.63;80.55;;;;;;;;;;5035638;28;20049;-76
2021/12/16 15:57:32;;;;;;;174.65;85.45;;;;;;;;;;5036699;28;20029;-76
2021/12/16 16:00:25;;;;;;;183.07;87.70;;;;;;;;;;5035362;28;20025;-76
2021/12/16 16:02:54;;;;;;;170.07;79.53;;;;;;;;;;5033677;28;20033;-76
2021/12/16 16:05:30;;;;;;;169.80;81.88;;;;;;;;;;5051207;28;20033;-76
2021/12/16 16:08:00;;;;;;;149.57;69.38;;;;;;;;;;5036136;28;20049;-76
2021/12/16 16:10:26;;;;;;;141.90;69.47;;;;;;;;;;5035790;28;20018;-76
2021/12/16 16:12:53;;;;;;;163.73;75.18;;;;;;;;;;5051283;28;20029;-76
2021/12/16 16:15:22;;;;;;;156.95;73.78;;;;;;;;;;5034800;28;20109;-76
2021/12/16 16:18:02;;;;;;;148.18;69.35;;;;;;;;;;5035593;28;20056;-76
2021/12/16 16:20:31;;;;;;;167.35;72.63;;;;;;;;;;5051455;28;20018;-76
2021/12/16 16:23:03;;;;;;;149.93;71.72;;;;;;;;;;5035382;28;20021;-76
2021/12/16 16:25:33;;;;;;;133.57;65.05;;;;;;;;;;5035160;28;20312;-76
2021/12/16 16:28:02;;;;;;;144.77;68.38;;;;;;;;;;5036123;28;20108;-76
2021/12/16 16:30:29;;;;;;;135.35;65.10;;;;;;;;;;5051566;28;20029;-76
2021/12/16 16:33:05;;;;;;;142.93;65.45;;;;;;;;;;5035332;28;20044;-76
2021/12/16 16:35:32;;;;;;;153.32;71.25;;;;;;;;;;5034984;28;20064;-76
2021/12/16 16:38:12;;;;;;;160.82;77.22;;;;;;;;;;5035841;28;20101;-76
2021/12/16 16:40:41;;;;;;;156.52;74.45;;;;;;;;;;5034925;28;20446;-76
2021/12/16 16:43:18;;;;;;;164.32;77.07;;;;;;;;;;5051854;28;20032;-76
2021/12/16 16:45:45;;;;;;;156.68;74.45;;;;;;;;;;5035121;28;20075;-76
2021/12/16 16:48:27;;;;;;;144.60;71.75;;;;;;;;;;5034743;28;20076;-76
2021/12/16 16:51:10;;;;;;;170.75;79.28;;;;;;;;;;5035198;28;20017;-76
2021/12/16 16:53:57;;;;;;;183.15;80.07;;;;;;;;;;5034933;28;20040;-76
2021/12/16 16:56:35;;;;;;;162.73;76.13;;;;;;;;;;5037045;28;20021;-76
2021/12/16 16:59:07;;;;;;;154.48;74.00;;;;;;;;;;5021978;28;20021;-76
2021/12/16 17:01:34;;;;;;;171.82;86.13;;;;;;;;;;5054633;28;20013;-76
2021/12/16 17:04:02;;;;;;;197.05;94.45;;;;;;;;;;5022195;28;20032;-76
2021/12/16 17:06:30;;;;;;;213.20;104.28;;;;;;;;;;5039107;28;20036;-76
2021/12/16 17:08:56;;;;;;;241.95;127.78;;;;;;;;;;5039259;28;20022;-76
2021/12/16 17:11:25;;;;;;;237.60;121.75;;;;;;;;;;5037629;28;20347;-76
2021/12/16 17:14:00;;;;;;;251.25;128.85;;;;;;;;;;5038348;28;20024;-76
2021/12/16 17:19:14;;;;;;;261.25;122.75;;;;;;;;;;5038253;28;20124;-76
2021/12/16 17:21:46;;;;;;;254.27;126.50;;;;;;;;;;5037999;28;20021;-76
2021/12/16 17:24:14;;;;;;;263.83;129.90;;;;;;;;;;5037848;28;20018;-76
2021/12/16 17:26:43;;;;;;;260.10;132.30;;;;;;;;;;5037857;28;20450;-76
2021/12/16 17:29:09;;;;;;;308.60;152.63;;;;;;;;;;5039280;28;20033;-76
2021/12/16 17:31:39;;;;;;;344.08;165.70;;;;;;;;;;5021804;28;20025;-76
2021/12/16 17:34:27;;;;;;;326.73;164.82;;;;;;;;;;5038245;28;20370;-76
2021/12/16 17:37:02;;;;;;;408.40;190.68;;;;;;;;;;5021540;28;20024;-76
2021/12/16 17:39:43;;;;;;;413.77;199.93;;;;;;;;;;5037951;28;20021;-76
2021/12/16 17:42:08;;;;;;;;;;;;;;;;;;5039025;28;20021;-76
2021/12/16 17:44:35;;;;;;;400.70;197.48;;;;;;;;;;5037864;28;19912;-76
2021/12/16 17:47:04;;;;;;;396.55;197.38;;;;;;;;;;5039251;28;20028;-76
2021/12/16 17:49:32;;;;;;;403.60;199.52;;;;;;;;;;5037902;28;20427;-76
2021/12/16 17:52:06;;;;;;;379.27;184.10;;;;;;;;;;5038869;28;20041;-76
2021/12/16 17:54:43;;;;;;;325.83;156.77;;;;;;;;;;5037339;28;20029;-76
2021/12/16 17:57:10;;;;;;;339.13;169.65;;;;;;;;;;5037671;28;20018;-76
2021/12/16 17:59:38;;;;;;;348.75;160.80;;;;;;;;;;5037171;28;20028;-76
2021/12/16 18:02:16;;;;;;;326.95;159.77;;;;;;;;;;5037353;28;20018;-76
2021/12/16 18:04:44;;;;;;;323.55;154.77;;;;;;;;;;5037505;28;20407;-76
2021/12/16 18:07:10;;;;;;;328.60;155.00;;;;;;;;;;5020492;28;20025;-76
2021/12/16 18:09:41;;;;;;;332.75;162.45;;;;;;;;;;5037340;28;20075;-76
2021/12/16 18:12:16;;;;;;;342.17;162.05;;;;;;;;;;5037152;28;20037;-76
2021/12/16 18:14:51;;;;;;;345.73;171.00;;;;;;;;;;5053157;28;20021;-76
2021/12/16 18:17:20;;;;;;;374.52;179.70;;;;;;;;;;5037176;28;20025;-76
2021/12/16 18:19:52;;;;;;;422.02;193.32;;;;;;;;;;5053255;28;20025;-76
2021/12/16 18:22:23;;;;;;;389.20;193.00;;;;;;;;;;5036965;28;20481;-76
2021/12/16 18:24:54;;;;;;;406.13;190.10;;;;;;;;;;5037213;28;20036;-76
2021/12/16 18:27:25;;;;;;;412.98;196.55;;;;;;;;;;5036788;28;20018;-76
2021/12/16 18:29:51;;;;;;;;;;;;;;;;;;5021312;28;20025;-76
2021/12/16 18:32:25;;;;;;;386.95;182.63;;;;;;;;;;5036967;28;19921;-76
2021/12/16 18:34:51;;;;;;;354.92;172.27;;;;;;;;;;5053797;28;20021;-76
2021/12/16 18:37:17;;;;;;;364.75;174.25;;;;;;;;;;5036747;28;20443;-76